Date,TemperatureHighF,TemperatureAvgF,TemperatureLowF,DewpointHighF,DewpointAvgF,DewpointLowF,HumidityHigh,HumidityAvg,HumidityLow,PressureMaxIn,PressureMinIn,WindSpeedMaxMPH,WindSpeedAvgMPH,GustSpeedMaxMPH,PrecipitationSumIn
2013-1-1,-200.0,0.0,200.0,-99.9,-99.9,-99.9,0,0,100,30.12,30.01,0,-999,0,0.00
2013-1-2,31.7,9.9,22.6,25.0,-54.9,-99.9,93,31,75,30.28,30.11,4,-634,7,0.00
2013-1-3,37.9,11.5,17.9,29.0,-56.6,-99.9,92,25,64,30.40,30.24,10,-650,16,0.00
2013-1-4,38.3,12.8,26.6,29.0,-52.4,-99.9,88,29,69,30.44,30.36,15,-624,20,0.00
2013-1-5,44.0,14.0,19.7,33.0,-52.2,-99.9,94,27,64,30.39,30.20,11,-632,16,0.00
2013-1-6,39.6,10.4,34.8,35.0,-63.6,-99.9,85,22,75,30.39,30.11,17,-723,23,0.00
2013-1-7,41.4,13.4,18.5,30.0,-50.9,-99.9,93,29,63,30.47,30.24,6,-612,10,0.00
2013-1-8,53.2,17.8,29.0,40.0,-48.4,-99.9,93,25,58,30.33,30.20,15,-621,21,0.00
2013-1-9,55.9,12.0,49.9,48.0,-67.3,-99.9,87,17,74,30.46,30.21,4,-778,8,0.00
2013-1-10,-200.0,0.0,200.0,-99.9,-99.9,-99.9,0,0,100,30.46,29.98,0,-999,0,0.00
2013-1-11,66.4,23.2,55.5,55.0,-42.2,-99.9,97,29,63,29.98,29.82,17,-621,25,0.30
2013-1-12,66.4,13.1,65.0,65.0,-67.0,-99.9,98,19,94,29.99,29.75,7,-798,11,0.01
2013-1-13,-200.0,0.0,200.0,-99.9,-99.9,-99.9,0,0,100,30.18,29.73,0,-999,0,0.00
2013-1-14,30.6,7.7,25.9,26.0,-67.1,-99.9,88,22,80,30.46,30.18,10,-734,15,0.00
2013-1-15,30.9,6.6,27.0,27.0,-72.0,-99.9,92,19,84,30.34,30.07,13,-775,17,0.00
2013-1-16,-200.0,0.0,200.0,-99.9,-99.9,-99.9,0,0,100,30.12,30.02,0,-999,0,0.00
2013-1-17,44.7,13.0,31.0,36.0,-56.9,-99.9,91,24,65,30.41,30.09,18,-673,21,0.02
2013-1-18,43.0,14.5,20.7,31.0,-48.7,-99.9,91,28,60,30.55,30.31,11,-594,13,0.00
2013-1-19,54.9,19.0,36.7,36.0,-47.0,-99.9,74,23,47,30.30,30.00,21,-597,28,0.00
2013-1-20,41.9,14.7,35.2,26.0,-53.7,-99.9,69,19,40,30.25,30.04,13,-615,19,0.00
2013-1-21,28.1,10.0,23.1,19.0,-56.7,-99.9,82,22,44,30.31,30.16,21,-612,27,0.00
2013-1-22,21.2,5.8,11.6,5.0,-65.7,-99.9,64,18,46,30.46,30.31,9,-664,15,0.00
2013-1-23,38.4,12.2,12.9,23.0,-52.0,-99.9,82,24,50,30.40,30.11,13,-585,16,0.00
2013-1-24,27.5,10.0,19.7,13.0,-56.1,-99.9,70,20,37,30.58,30.17,16,-585,24,0.00
2013-1-25,27.6,3.4,27.1,26.0,-84.3,-99.9,92,11,89,30.39,30.10,7,-874,10,0.00
2013-1-26,37.2,12.2,22.7,27.0,-52.3,-99.9,93,29,65,30.40,30.21,6,-620,8,0.04
2013-1-27,41.1,12.1,24.7,34.0,-54.8,-99.9,92,29,74,30.40,30.15,10,-650,13,0.00
2013-1-28,-200.0,0.0,200.0,-99.9,-99.9,-99.9,0,0,100,30.16,30.05,0,-999,0,0.00
2013-1-29,64.7,17.7,60.6,61.0,-54.8,-99.9,92,25,86,30.05,29.54,20,-712,28,0.00
2013-1-30,56.0,7.7,55.0,52.0,-79.1,-99.9,88,12,80,29.71,29.32,20,-859,26,0.00
2013-1-31,35.1,9.1,26.7,26.0,-64.9,-99.9,90,20,66,30.16,29.72,23,-715,26,0.00
2013-2-1,21.3,6.1,6.7,12.0,-56.6,-99.9,78,28,66,30.51,30.17,15,-592,18,0.00
2013-2-2,36.6,12.0,27.6,29.0,-55.8,-99.9,88,26,69,30.36,30.04,15,-649,22,0.00
2013-2-3,30.6,8.4,29.9,29.0,-64.9,-99.9,94,24,79,30.17,29.98,21,-720,24,0.00
2013-2-4,49.6,11.9,29.3,37.0,-62.5,-99.9,85,19,58,30.15,29.84,14,-713,26,0.00
2013-2-5,51.2,13.2,36.2,40.0,-60.2,-99.9,95,22,63,30.03,29.87,10,-710,16,0.00
2013-2-6,46.0,15.6,28.4,36.0,-47.2,-99.9,94,31,68,30.25,30.04,8,-603,10,0.00
2013-2-7,65.3,20.7,36.4,48.0,-47.7,-99.9,87,23,51,30.15,29.82,12,-632,22,0.00
2013-2-8,-200.0,0.0,200.0,-99.9,-99.9,-99.9,0,0,100,30.31,29.82,0,-999,0,0.00
2013-2-9,46.7,16.1,28.0,31.0,-47.6,-99.9,86,27,53,30.39,30.16,9,-592,14,0.00
2013-2-10,57.6,8.8,50.9,43.0,-77.3,-99.9,68,10,57,30.15,29.79,16,-838,31,0.00
2013-2-11,50.8,19.1,43.1,37.0,-45.6,-99.9,71,25,48,30.11,29.80,20,-587,28,0.00
2013-2-12,49.3,18.3,26.9,34.0,-44.4,-99.9,90,27,53,30.16,29.88,6,-578,11,0.00
2013-2-13,40.2,9.2,32.4,36.0,-66.7,-99.9,95,22,80,29.94,29.76,9,-751,12,0.03
2013-2-14,55.9,18.4,36.5,42.0,-48.4,-99.9,94,26,56,29.98,29.88,21,-627,22,0.00
2013-2-15,42.3,11.7,36.7,35.0,-61.5,-99.9,85,21,58,30.18,29.99,19,-702,21,0.00
2013-2-16,32.4,12.2,22.0,22.0,-50.8,-99.9,87,27,47,30.18,30.10,23,-579,27,0.00
2013-2-17,39.6,14.0,18.1,22.0,-47.7,-99.9,83,27,47,30.28,30.16,6,-561,13,0.00
2013-2-18,60.6,20.9,35.2,42.0,-46.6,-99.9,67,21,45,30.18,29.74,26,-607,34,0.00
2013-2-19,38.2,13.0,32.1,28.0,-53.8,-99.9,79,25,55,30.21,29.72,20,-626,31,0.01
2013-2-20,30.6,11.4,19.3,19.0,-50.3,-99.9,80,28,60,30.35,30.21,10,-572,13,0.00
2013-2-21,36.8,12.1,19.7,25.0,-52.2,-99.9,85,27,59,30.33,29.97,14,-603,21,0.00
2013-2-22,48.3,14.5,43.8,42.0,-55.8,-99.9,88,25,78,30.00,29.86,18,-684,25,0.00
2013-2-23,30.6,2.5,27.8,24.0,-89.5,-99.9,84,7,76,30.02,29.93,5,-915,6,0.00
2013-2-24,-200.0,0.0,200.0,-99.9,-99.9,-99.9,0,0,100,30.13,29.99,0,-999,0,0.00
2013-2-25,-200.0,0.0,200.0,-99.9,-99.9,-99.9,0,0,100,30.07,29.71,0,-999,0,0.00
2013-2-26,-200.0,0.0,200.0,-99.9,-99.9,-99.9,0,0,100,29.70,29.34,0,-999,0,0.00
2013-2-27,-200.0,0.0,200.0,-99.9,-99.9,-99.9,0,0,100,29.78,29.56,0,-999,0,0.00
2013-2-28,-200.0,0.0,200.0,-99.9,-99.9,-99.9,0,0,100,29.98,29.76,0,-999,0,0.00
2013-3-1,-200.0,0.0,200.0,-99.9,-99.9,-99.9,0,0,100,30.00,29.93,0,-999,0,0.00
2013-3-2,-200.0,0.0,200.0,-99.9,-99.9,-99.9,0,0,100,30.09,29.98,0,-999,0,0.00
2013-3-3,-200.0,0.0,200.0,-99.9,-99.9,-99.9,0,0,100,30.10,30.03,0,-999,0,0.00
2013-3-4,-200.0,0.0,200.0,-99.9,-99.9,-99.9,0,0,100,30.11,29.88,0,-999,0,0.00
2013-3-5,-200.0,0.0,200.0,-99.9,-99.9,-99.9,0,0,100,29.87,29.59,0,-999,0,0.00
2013-3-6,-200.0,0.0,200.0,-99.9,-99.9,-99.9,0,0,100,30.27,29.82,0,-999,0,0.00
2013-3-7,-200.0,0.0,200.0,-99.9,-99.9,-99.9,0,0,100,30.36,30.25,0,-999,0,0.00
2013-3-8,-200.0,0.0,200.0,-99.9,-99.9,-99.9,0,0,100,30.42,30.30,0,-999,0,0.00
2013-3-9,-200.0,0.0,200.0,-99.9,-99.9,-99.9,0,0,100,30.29,30.01,0,-999,0,0.00
2013-3-10,-200.0,0.0,200.0,-99.9,-99.9,-99.9,0,0,100,30.00,29.77,0,-999,0,0.00
2013-3-11,-200.0,0.0,200.0,-99.9,-99.9,-99.9,0,0,100,29.91,29.68,0,-999,0,0.00
2013-3-12,-200.0,0.0,200.0,-99.9,-99.9,-99.9,0,0,100,30.07,29.91,0,-999,0,0.00
2013-3-13,-200.0,0.0,200.0,-99.9,-99.9,-99.9,0,0,100,30.36,30.05,0,-999,0,0.00
2013-3-14,-200.0,0.0,200.0,-99.9,-99.9,-99.9,0,0,100,30.37,30.18,0,-999,0,0.00
2013-3-15,-200.0,0.0,200.0,-99.9,-99.9,-99.9,0,0,100,30.18,29.75,0,-999,0,0.00
2013-3-16,-200.0,0.0,200.0,-99.9,-99.9,-99.9,0,0,100,29.95,29.66,0,-999,0,0.00
2013-3-17,-200.0,0.0,200.0,-99.9,-99.9,-99.9,0,0,100,30.04,29.84,0,-999,0,0.00
2013-3-18,-200.0,0.0,200.0,-99.9,-99.9,-99.9,0,0,100,29.88,29.57,0,-999,0,0.00
2013-3-19,-200.0,0.0,200.0,-99.9,-99.9,-99.9,0,0,100,30.14,29.88,0,-999,0,0.00
2013-3-20,-200.0,0.0,200.0,-99.9,-99.9,-99.9,0,0,100,30.13,30.00,0,-999,0,0.00
2013-3-21,-200.0,0.0,200.0,-99.9,-99.9,-99.9,0,0,100,30.04,29.96,0,-999,0,0.00
2013-3-22,-200.0,0.0,200.0,-99.9,-99.9,-99.9,0,0,100,30.05,29.97,0,-999,0,0.00
2013-3-23,-200.0,0.0,200.0,-99.9,-99.9,-99.9,0,0,100,30.00,29.78,0,-999,0,0.00
2013-3-24,-200.0,0.0,200.0,-99.9,-99.9,-99.9,0,0,100,29.77,29.36,0,-999,0,0.00
2013-3-25,-200.0,0.0,200.0,-99.9,-99.9,-99.9,0,0,100,30.00,29.48,0,-999,0,0.00
2013-3-26,-200.0,0.0,200.0,-99.9,-99.9,-99.9,0,0,100,30.27,30.00,0,-999,0,0.00
2013-3-27,-200.0,0.0,200.0,-99.9,-99.9,-99.9,0,0,100,30.34,30.27,0,-999,0,0.00
2013-3-28,-200.0,0.0,200.0,-99.9,-99.9,-99.9,0,0,100,30.36,30.26,0,-999,0,0.00
2013-3-29,-200.0,0.0,200.0,-99.9,-99.9,-99.9,0,0,100,30.29,30.18,0,-999,0,0.00
2013-3-30,-200.0,0.0,200.0,-99.9,-99.9,-99.9,0,0,100,30.21,29.91,0,-999,0,0.00
2013-3-31,-200.0,0.0,200.0,-99.9,-99.9,-99.9,0,0,100,29.91,29.80,0,-999,0,0.00
2013-4-1,-200.0,0.0,200.0,-99.9,-99.9,-99.9,0,0,100,30.13,29.83,0,-999,0,0.00
2013-4-2,-200.0,0.0,200.0,-99.9,-99.9,-99.9,0,0,100,30.26,30.12,0,-999,0,0.00
2013-4-3,-200.0,0.0,200.0,-99.9,-99.9,-99.9,0,0,100,30.35,30.23,0,-999,0,0.00
2013-4-4,-200.0,0.0,200.0,-99.9,-99.9,-99.9,0,0,100,30.24,29.98,0,-999,0,0.00
2013-4-5,-200.0,0.0,200.0,-99.9,-99.9,-99.9,0,0,100,30.09,29.98,0,-999,0,0.00
2013-4-6,-200.0,0.0,200.0,-99.9,-99.9,-99.9,0,0,100,30.12,29.89,0,-999,0,0.00
2013-4-7,-200.0,0.0,200.0,-99.9,-99.9,-99.9,0,0,100,29.97,29.89,0,-999,0,0.00
2013-4-8,-200.0,0.0,200.0,-99.9,-99.9,-99.9,0,0,100,29.95,29.87,0,-999,0,0.00
2013-4-9,-200.0,0.0,200.0,-99.9,-99.9,-99.9,0,0,100,30.05,29.92,0,-999,0,0.00